createdAt,value
2023-04-08T00:00:13.273Z,99.64
2023-04-08T00:04:15.766Z,99.63
2023-04-08T00:08:17.657Z,99.70
2023-04-08T00:12:19.926Z,99.62
2023-04-08T00:16:22.852Z,99.98
2023-04-08T00:20:24.886Z,100.00
2023-04-08T00:24:26.718Z,100.00
2023-04-08T00:28:28.531Z,100.00
2023-04-08T00:32:30.569Z,100.00
2023-04-08T00:36:32.719Z,100.00
2023-04-08T00:40:35.141Z,100.00
2023-04-08T00:44:37.040Z,100.00
2023-04-08T00:48:38.947Z,100.00
2023-04-08T00:52:41.066Z,100.00
2023-04-08T00:56:45.085Z,100.00
2023-04-08T01:00:58.643Z,100.00
2023-04-08T01:05:15.864Z,100.00
2023-04-08T01:09:21.642Z,100.00
2023-04-08T01:13:25.344Z,100.00
2023-04-08T01:17:28.082Z,100.00
2023-04-08T01:21:30.569Z,100.00
2023-04-08T01:25:36.878Z,100.00
2023-04-08T01:29:39.453Z,100.00
2023-04-08T01:33:42.068Z,100.00
2023-04-08T01:37:47.093Z,100.00
2023-04-08T01:41:51.328Z,100.00
2023-04-08T01:45:58.576Z,100.00
2023-04-08T01:50:02.102Z,100.00
2023-04-08T01:54:03.878Z,100.00
2023-04-08T01:58:09.202Z,100.00
2023-04-08T02:02:12.631Z,100.00
2023-04-08T02:06:14.759Z,100.00
2023-04-08T02:10:16.690Z,100.00
2023-04-08T02:14:18.741Z,100.00
2023-04-08T02:18:28.316Z,100.00
2023-04-08T02:22:46.195Z,100.00
2023-04-08T02:26:51.211Z,100.00
2023-04-08T02:30:54.827Z,100.00
2023-04-08T02:34:58.314Z,100.00
2023-04-08T02:39:00.592Z,100.00
2023-04-08T02:43:02.848Z,100.00
2023-04-08T02:47:05.299Z,100.00
2023-04-08T02:51:10.149Z,100.00
2023-04-08T02:55:12.158Z,100.00
2023-04-08T02:59:14.417Z,100.00
2023-04-08T03:03:16.559Z,100.00
2023-04-08T03:07:18.415Z,100.00
2023-04-08T03:11:21.383Z,100.00
2023-04-08T03:15:23.276Z,100.00
2023-04-08T03:19:25.095Z,100.00
2023-04-08T03:23:26.954Z,100.00
2023-04-08T03:27:28.952Z,100.00
2023-04-08T03:31:30.896Z,100.00
2023-04-08T03:35:33.543Z,100.00
2023-04-08T03:39:35.406Z,100.00
2023-04-08T03:43:38.136Z,100.00
2023-04-08T03:47:40.074Z,100.00
2023-04-08T03:51:41.961Z,100.00
2023-04-08T03:55:43.758Z,100.00
2023-04-08T03:59:45.745Z,100.00
2023-04-08T04:03:47.671Z,100.00
2023-04-08T04:07:49.545Z,100.00
2023-04-08T04:11:51.488Z,100.00
2023-04-08T04:15:53.368Z,100.00
2023-04-08T04:19:55.270Z,100.00
2023-04-08T04:23:57.117Z,100.00
2023-04-08T04:27:58.981Z,100.00
2023-04-08T04:32:01.047Z,100.00
2023-04-08T04:36:02.909Z,100.00
2023-04-08T04:40:05.958Z,100.00
2023-04-08T04:44:07.843Z,100.00
2023-04-08T04:48:09.637Z,100.00
2023-04-08T04:52:11.660Z,100.00
2023-04-08T04:56:13.544Z,100.00
2023-04-08T05:00:16.563Z,100.00
2023-04-08T05:04:18.377Z,100.00
2023-04-08T05:08:21.367Z,100.00
2023-04-08T05:12:23.251Z,100.00
2023-04-08T05:16:25.236Z,100.00
2023-04-08T05:20:27.073Z,100.00
2023-04-08T05:24:28.894Z,100.00
2023-04-08T05:28:30.968Z,100.00
2023-04-08T05:32:32.913Z,100.00
2023-04-08T05:36:34.879Z,100.00
2023-04-08T05:40:36.779Z,100.00
2023-04-08T05:44:38.970Z,100.00
2023-04-08T05:48:40.778Z,100.00
2023-04-08T05:52:46.090Z,100.00
2023-04-08T05:56:49.098Z,100.00
2023-04-08T06:00:51.173Z,100.00
2023-04-08T06:04:53.071Z,100.00
2023-04-08T06:08:54.885Z,100.00
2023-04-08T06:12:56.692Z,100.00
2023-04-08T06:16:58.716Z,100.00
2023-04-08T06:21:00.689Z,100.00
2023-04-08T06:25:03.140Z,100.00
2023-04-08T06:29:05.272Z,100.00
2023-04-08T06:33:07.448Z,100.00
2023-04-08T06:37:09.341Z,100.00
2023-04-08T06:41:11.132Z,100.00
2023-04-08T06:45:13.054Z,100.00
2023-04-08T06:49:14.872Z,100.00
2023-04-08T06:53:16.666Z,100.00
2023-04-08T06:57:18.512Z,100.00
2023-04-08T07:01:20.852Z,100.00
2023-04-08T07:05:22.673Z,100.00
2023-04-08T07:09:24.489Z,100.00
2023-04-08T07:13:26.330Z,100.00
2023-04-08T07:17:28.318Z,100.00
2023-04-08T07:21:31.374Z,100.00
2023-04-08T07:25:35.384Z,100.00
2023-04-08T07:29:37.154Z,100.00
2023-04-08T07:33:38.963Z,100.00
2023-04-08T07:37:40.792Z,100.00
2023-04-08T07:41:42.572Z,100.00
2023-04-08T07:45:44.417Z,100.00
2023-04-08T07:49:47.180Z,100.00
2023-04-08T07:53:49.216Z,100.00
2023-04-08T07:57:50.998Z,99.14
2023-04-08T08:01:52.824Z,98.63
2023-04-08T08:05:54.616Z,97.86
2023-04-08T08:09:56.492Z,97.99
2023-04-08T08:13:58.343Z,96.96
2023-04-08T08:18:00.611Z,96.12
2023-04-08T08:22:02.478Z,96.05
2023-04-08T08:26:07.104Z,95.25
2023-04-08T08:30:09.518Z,94.56
2023-04-08T08:34:11.413Z,95.17
2023-04-08T08:38:14.183Z,95.38
2023-04-08T08:42:26.641Z,94.83
2023-04-08T08:46:28.528Z,95.17
2023-04-08T08:50:30.602Z,94.90
2023-04-08T08:54:32.811Z,94.56
2023-04-08T08:58:35.017Z,93.63
2023-04-08T09:02:36.983Z,93.65
2023-04-08T09:06:39.090Z,93.23
2023-04-08T09:10:40.941Z,92.65
2023-04-08T09:14:43.273Z,92.66
2023-04-08T09:18:49.323Z,92.19
2023-04-08T09:22:54.213Z,91.97
2023-04-08T09:26:56.769Z,91.43
2023-04-08T09:30:58.965Z,91.12
2023-04-08T09:35:00.930Z,90.28
2023-04-08T09:39:02.762Z,90.22
2023-04-08T09:43:06.642Z,89.48
2023-04-08T09:47:25.027Z,88.19
2023-04-08T09:51:33.403Z,87.35
2023-04-08T09:55:36.428Z,86.38
2023-04-08T09:59:39.668Z,86.05
2023-04-08T10:03:50.269Z,85.56
2023-04-08T10:07:52.848Z,84.95
2023-04-08T10:11:55.579Z,84.99
2023-04-08T10:16:26.050Z,83.80
2023-04-08T10:20:36.932Z,82.82
2023-04-08T10:24:38.763Z,81.85
2023-04-08T10:28:40.735Z,80.52
2023-04-08T10:32:42.685Z,80.13
2023-04-08T10:36:48.214Z,77.97
2023-04-08T10:40:50.158Z,76.83
2023-04-08T10:44:52.311Z,76.89
2023-04-08T10:49:03.939Z,75.75
2023-04-08T10:53:06.743Z,74.74
2023-04-08T10:57:08.660Z,74.17
2023-04-08T11:01:10.600Z,73.08
2023-04-08T11:05:12.564Z,72.52
2023-04-08T11:09:16.763Z,72.24
2023-04-08T11:13:19.102Z,71.78
2023-04-08T11:17:21.776Z,71.44
2023-04-08T11:21:25.739Z,71.40
2023-04-08T11:25:28.749Z,70.78
2023-04-08T11:29:31.042Z,70.44
2023-04-08T11:33:33.371Z,69.57
2023-04-08T11:37:42.268Z,69.11
2023-04-08T11:41:44.786Z,69.28
2023-04-08T11:45:46.653Z,68.45
2023-04-08T11:49:48.820Z,68.33
2023-04-08T11:53:54.638Z,67.17
2023-04-08T11:58:03.537Z,65.86
2023-04-08T12:02:05.531Z,65.37
2023-04-08T12:06:08.995Z,64.56
2023-04-08T12:10:12.389Z,63.87
2023-04-08T12:14:14.821Z,63.46
2023-04-08T12:18:16.760Z,62.50
2023-04-08T12:22:18.571Z,62.00
2023-04-08T12:26:20.459Z,61.41
2023-04-08T12:30:22.526Z,61.33
2023-04-08T12:34:24.975Z,60.63
2023-04-08T12:38:27.299Z,60.35
2023-04-08T12:42:29.361Z,59.17
2023-04-08T12:46:31.493Z,58.24
2023-04-08T12:50:33.277Z,57.78
2023-04-08T12:54:35.208Z,56.92
2023-04-08T12:58:37.451Z,56.65
2023-04-08T13:02:39.379Z,56.33
2023-04-08T13:06:41.336Z,56.71
2023-04-08T13:10:43.765Z,55.42
2023-04-08T13:14:45.528Z,55.62
2023-04-08T13:18:47.748Z,55.31
2023-04-08T13:22:49.514Z,55.13
2023-04-08T13:26:51.951Z,54.79
2023-04-08T13:30:54.335Z,54.15
2023-04-08T13:34:56.453Z,54.17
2023-04-08T13:38:58.687Z,53.52
2023-04-08T13:43:00.649Z,53.28
2023-04-08T13:47:02.814Z,53.01
2023-04-08T13:51:04.683Z,52.44
2023-04-08T13:55:06.999Z,52.30
2023-04-08T13:59:10.446Z,51.62
2023-04-08T14:03:12.273Z,51.48
2023-04-08T14:07:14.586Z,51.36
2023-04-08T14:11:16.532Z,51.51
2023-04-08T14:15:18.428Z,50.46
2023-04-08T14:19:20.458Z,50.67
2023-04-08T14:23:22.269Z,50.07
2023-04-08T14:27:24.055Z,50.38
2023-04-08T14:31:26.092Z,50.28
2023-04-08T14:35:28.026Z,50.54
2023-04-08T14:39:29.886Z,50.65
2023-04-08T14:43:31.667Z,50.78
2023-04-08T14:47:33.581Z,51.17
2023-04-08T14:51:38.014Z,51.03
2023-04-08T14:55:39.970Z,51.57
2023-04-08T14:59:41.759Z,52.14
2023-04-08T15:03:43.676Z,51.96
2023-04-08T15:07:47.433Z,51.85
2023-04-08T15:11:49.289Z,52.12
2023-04-08T15:15:53.962Z,52.66
2023-04-08T15:19:55.866Z,52.88
2023-04-08T15:23:57.911Z,52.45
2023-04-08T15:27:59.822Z,52.39
2023-04-08T15:32:01.748Z,52.80
2023-04-08T15:36:04.334Z,52.32
2023-04-08T15:40:07.081Z,52.33
2023-04-08T15:44:08.956Z,52.42
2023-04-08T15:48:13.554Z,52.73
2023-04-08T15:52:15.463Z,53.61
2023-04-08T15:56:18.278Z,53.49
2023-04-08T16:00:20.244Z,53.92
2023-04-08T16:04:23.221Z,54.04
2023-04-08T16:08:25.734Z,54.45
2023-04-08T16:12:27.594Z,54.97
2023-04-08T16:16:30.040Z,55.13
2023-04-08T16:20:32.267Z,54.63
2023-04-08T16:24:36.779Z,54.60
2023-04-08T16:28:40.041Z,54.54
2023-04-08T16:32:42.217Z,54.71
2023-04-08T16:36:44.049Z,54.23
2023-04-08T16:40:45.861Z,53.90
2023-04-08T16:44:47.807Z,53.86
2023-04-08T16:48:49.612Z,53.97
2023-04-08T16:52:51.718Z,53.71
2023-04-08T16:56:53.610Z,52.83
2023-04-08T17:00:55.715Z,52.36
2023-04-08T17:04:57.531Z,52.41
2023-04-08T17:08:59.368Z,52.12
2023-04-08T17:13:01.295Z,53.19
2023-04-08T17:17:03.178Z,53.58
2023-04-08T17:21:05.281Z,54.57
2023-04-08T17:25:07.782Z,54.99
2023-04-08T17:29:10.280Z,55.78
2023-04-08T17:33:12.081Z,56.16
2023-04-08T17:37:13.967Z,56.76
2023-04-08T17:41:21.603Z,56.90
2023-04-08T17:45:32.527Z,57.86
2023-04-08T17:49:34.488Z,58.18
2023-04-08T17:53:36.309Z,58.08
2023-04-08T17:57:39.187Z,57.35
2023-04-08T18:01:41.217Z,57.57
2023-04-08T18:05:43.332Z,57.78
2023-04-08T18:09:48.142Z,58.42
2023-04-08T18:13:50.096Z,58.49
2023-04-08T18:17:52.216Z,59.16
2023-04-08T18:21:55.438Z,59.70
2023-04-08T18:25:57.289Z,60.45
2023-04-08T18:29:59.380Z,60.88
2023-04-08T18:34:01.177Z,61.33
2023-04-08T18:38:02.980Z,62.42
2023-04-08T18:42:04.853Z,63.61
2023-04-08T18:46:06.700Z,64.16
2023-04-08T18:50:09.459Z,65.03
2023-04-08T18:54:11.252Z,65.93
2023-04-08T18:58:13.113Z,66.59
2023-04-08T19:02:15.328Z,67.09
2023-04-08T19:06:17.687Z,68.16
2023-04-08T19:10:19.758Z,68.44
2023-04-08T19:14:21.789Z,69.05
2023-04-08T19:18:23.750Z,69.35
2023-04-08T19:22:25.582Z,69.50
2023-04-08T19:26:27.413Z,70.11
2023-04-08T19:30:29.382Z,70.73
2023-04-08T19:34:31.273Z,70.84
2023-04-08T19:38:33.105Z,71.56
2023-04-08T19:42:35.069Z,72.45
2023-04-08T19:46:37.503Z,72.41
2023-04-08T19:50:39.751Z,73.32
2023-04-08T19:54:43.571Z,73.30
2023-04-08T19:58:46.433Z,74.21
2023-04-08T20:02:48.611Z,74.60
2023-04-08T20:06:50.629Z,75.34
2023-04-08T20:10:54.071Z,75.74
2023-04-08T20:14:55.916Z,76.40
2023-04-08T20:18:57.677Z,76.78
2023-04-08T20:22:59.488Z,77.01
2023-04-08T20:27:01.608Z,77.37
2023-04-08T20:31:03.642Z,78.13
2023-04-08T20:35:06.004Z,78.00
2023-04-08T20:39:10.959Z,78.39
2023-04-08T20:43:12.795Z,79.52
2023-04-08T20:47:14.637Z,79.51
2023-04-08T20:51:17.677Z,80.43
2023-04-08T20:55:19.641Z,80.88
2023-04-08T20:59:21.463Z,81.19
2023-04-08T21:03:23.367Z,81.34
2023-04-08T21:07:26.412Z,82.01
2023-04-08T21:11:28.637Z,82.00
2023-04-08T21:15:30.627Z,82.83
2023-04-08T21:19:32.471Z,83.15
2023-04-08T21:23:34.278Z,83.07
2023-04-08T21:27:36.210Z,83.33
2023-04-08T21:31:38.259Z,84.16
2023-04-08T21:35:40.242Z,84.12
2023-04-08T21:39:42.051Z,84.28
2023-04-08T21:43:43.864Z,84.68
2023-04-08T21:47:45.787Z,85.01
2023-04-08T21:51:47.642Z,85.92
2023-04-08T21:55:49.728Z,85.87
2023-04-08T21:59:51.850Z,86.24
2023-04-08T22:03:55.669Z,86.52
2023-04-08T22:07:57.586Z,86.95
2023-04-08T22:11:59.456Z,87.53
2023-04-08T22:16:01.281Z,87.39
2023-04-08T22:20:03.519Z,87.86
2023-04-08T22:24:05.500Z,87.74
2023-04-08T22:28:07.790Z,88.62
2023-04-08T22:32:09.655Z,88.24
2023-04-08T22:36:11.548Z,88.54
2023-04-08T22:40:13.461Z,88.80
2023-04-08T22:44:15.949Z,88.92
2023-04-08T22:48:17.789Z,89.39
2023-04-08T22:52:19.644Z,89.59
2023-04-08T22:56:21.718Z,89.62
2023-04-08T23:00:23.702Z,89.45
2023-04-08T23:04:25.893Z,90.17
2023-04-08T23:08:27.779Z,89.92
2023-04-08T23:12:29.659Z,90.17
2023-04-08T23:16:31.803Z,90.39
2023-04-08T23:20:34.693Z,90.54
2023-04-08T23:24:36.488Z,90.97
2023-04-08T23:28:38.293Z,90.55
2023-04-08T23:32:40.183Z,91.21
2023-04-08T23:36:42.065Z,91.51
2023-04-08T23:40:43.997Z,91.36
2023-04-08T23:44:48.124Z,91.58
2023-04-08T23:48:50.166Z,92.12
2023-04-08T23:52:52.258Z,91.82
2023-04-08T23:56:54.043Z,92.29
